Time;durP1;ratioP1;P1;durP2;ratioP2;P2;SDS_P1;SDS_P2;PMS_P1;PMS_P2;Temp;Humidity;BMP_temperature;BMP_pressure;BME280_temperature;BME280_humidity;BME280_pressure;Samples;Min_cycle;Max_cycle;Signal;HPM_P1;HPM_P2
2023/05/16 00:01:50;;;;;;;;;22.00;22.00;;;;;14.67;100.00;99145.91;6284284;20;2842082;-60
2023/05/16 00:04:19;;;;;;;;;24.00;22.67;;;;;14.66;100.00;99150.44;6287139;20;3582595;-60
2023/05/16 00:06:48;;;;;;;;;27.33;22.67;;;;;14.68;100.00;99147.63;6280876;20;2847243;-60
2023/05/16 00:09:16;;;;;;;;;25.00;25.00;;;;;14.70;100.00;99141.09;6316098;20;2840925;-60
2023/05/16 00:11:45;;;;;;;;;22.50;21.50;;;;;14.70;100.00;99140.22;6284012;20;2838896;-60
2023/05/16 00:14:14;;;;;;;;;23.50;22.50;;;;;14.60;100.00;99140.16;6285261;20;2833821;-61
2023/05/16 00:16:42;;;;;;;;;26.00;24.67;;;;;14.66;100.00;99136.06;6285218;20;3590005;-60
2023/05/16 00:19:11;;;;;;;;;27.00;24.67;;;;;14.63;100.00;99131.78;6283815;20;2862813;-61
2023/05/16 00:21:39;;;;;;;;;24.33;24.33;;;;;14.62;100.00;99138.19;6318401;20;3580488;-61
2023/05/16 00:24:07;;;;;;;;;29.00;29.00;;;;;14.68;100.00;99137.66;6285662;20;3595035;-61
2023/05/16 00:26:36;;;;;;;;;26.00;24.00;;;;;14.71;100.00;99123.03;6283138;20;2842095;-61
2023/05/16 00:29:05;;;;;;;;;29.00;24.67;;;;;14.84;100.00;99126.34;6314964;20;3590358;-60
2023/05/16 00:31:34;;;;;;;;;27.67;27.67;;;;;14.64;100.00;99113.72;6284541;20;3592089;-61
2023/05/16 00:34:03;;;;;;;;;31.33;29.33;;;;;14.69;100.00;99117.78;6280815;20;3596156;-61
2023/05/16 00:36:31;;;;;;;;;25.33;25.33;;;;;14.38;100.00;99114.16;6312139;20;3585673;-61
2023/05/16 00:39:00;;;;;;;;;25.67;25.33;;;;;14.60;100.00;99113.16;6286306;20;3602430;-60
2023/05/16 00:41:29;;;;;;;;;27.33;26.67;;;;;14.59;100.00;99111.44;6283146;20;2860765;-59
2023/05/16 00:43:57;;;;;;;;;25.33;25.33;;;;;14.36;100.00;99110.72;6315740;20;3584634;-60
2023/05/16 00:46:25;;;;;;;;;29.00;27.00;;;;;14.42;100.00;99109.31;6284589;20;3594463;-60
2023/05/16 00:48:54;;;;;;;;;24.33;23.67;;;;;14.24;100.00;99114.47;6281629;20;3583852;-60
2023/05/16 00:51:23;;;;;;;;;27.33;25.33;;;;;14.25;100.00;99116.19;6281755;20;2856621;-60
2023/05/16 00:53:53;;;;;;;;;30.33;28.67;;;;;14.31;100.00;99118.34;6311314;20;3602418;-60
2023/05/16 00:56:23;;;;;;;;;26.67;24.67;;;;;14.30;100.00;99121.19;6279469;20;2846122;-60
2023/05/16 00:58:51;;;;;;;;;27.67;26.67;;;;;14.34;100.00;99123.50;6318303;20;3601293;-60
2023/05/16 01:01:25;;;;;;;;;31.00;30.00;;;;;14.57;100.00;99126.94;6285383;20;3607618;-61
2023/05/16 01:03:54;;;;;;;;;31.33;30.00;;;;;14.44;100.00;99128.97;6283269;20;3594089;-61
2023/05/16 01:06:22;;;;;;;;;24.67;24.33;;;;;14.37;100.00;99128.63;6280869;20;3577347;-60
2023/05/16 01:08:50;;;;;;;;;40.33;30.33;;;;;14.39;100.00;99131.19;6283835;20;3604504;-60
2023/05/16 01:11:31;;;;;;;;;29.00;26.67;;;;;14.48;100.00;99135.78;6285234;20;3587927;-60
2023/05/16 01:14:24;;;;;;;;;33.33;29.67;;;;;14.53;100.00;99128.19;6282642;20;3598289;-60
2023/05/16 01:17:04;;;;;;;;;31.67;29.67;;;;;14.50;100.00;99133.81;6280714;20;3594148;-60
2023/05/16 01:20:28;;;;;;;;;29.00;28.33;;;;;14.47;100.00;99140.34;6282886;20;3590967;-60
2023/05/16 01:23:50;;;;;;;;;34.67;31.67;;;;;14.35;100.00;99129.75;6286808;20;3590942;-60
2023/05/16 01:26:24;;;;;;;;;33.33;30.33;;;;;14.37;100.00;99139.41;6282075;20;3591932;-60
2023/05/16 01:28:53;;;;;;;;;30.00;29.67;;;;;14.36;100.00;99142.28;6279297;20;3585680;-60
2023/05/16 01:31:23;;;;;;;;;28.67;28.67;;;;;14.42;100.00;99134.47;6285854;20;3591007;-60
2023/05/16 01:33:51;;;;;;;;;29.33;27.33;;;;;14.35;100.00;99135.13;6284288;20;3601324;-60
2023/05/16 01:37:15;;;;;;;;;33.33;30.33;;;;;14.48;100.00;99122.28;6281075;20;3590976;-59
2023/05/16 01:39:56;;;;;;;;;30.00;27.00;;;;;14.31;100.00;99122.91;6281087;20;3599255;-60
2023/05/16 01:42:28;;;;;;;;;27.67;27.67;;;;;14.17;100.00;99114.16;6281200;20;3602520;-59
2023/05/16 01:45:16;;;;;;;;;31.00;29.67;;;;;14.22;100.00;99098.41;6282326;20;3604430;-59
2023/05/16 01:48:13;;;;;;;;;34.33;30.00;;;;;14.17;100.00;99100.66;6281150;20;3587812;-60
2023/05/16 01:50:50;;;;;;;;;36.67;32.00;;;;;14.26;100.00;99099.00;6282132;20;3598283;-60
2023/05/16 01:53:25;;;;;;;;;30.33;29.67;;;;;14.22;100.00;99108.38;6279155;20;3600268;-59
2023/05/16 01:56:00;;;;;;;;;35.00;30.33;;;;;14.18;100.00;99110.44;6281487;20;3604546;-60
2023/05/16 01:58:32;;;;;;;;;32.33;31.00;;;;;14.07;100.00;99104.28;6280609;20;3577359;-60
2023/05/16 02:01:04;;;;;;;;;39.00;34.00;;;;;14.10;100.00;99102.16;6278280;20;2843107;-60
2023/05/16 02:03:33;;;;;;;;;39.33;32.33;;;;;14.10;100.00;99093.22;6310169;20;3598285;-60
2023/05/16 02:06:02;;;;;;;;;35.33;32.00;;;;;14.14;100.00;99079.31;6284092;20;3574201;-60
2023/05/16 02:08:30;;;;;;;;;38.67;32.00;;;;;14.12;100.00;99081.28;6283025;20;3603463;-60
2023/05/16 02:10:59;;;;;;;;;41.67;34.00;;;;;14.19;100.00;99071.69;6282979;20;3581612;-60
2023/05/16 02:13:28;;;;;;;;;38.33;33.00;;;;;14.17;100.00;99078.19;6280495;20;3599347;-61
2023/05/16 02:15:56;;;;;;;;;39.67;35.33;;;;;14.10;100.00;99077.84;6314295;20;3587899;-61
2023/05/16 02:18:24;;;;;;;;;41.67;35.00;;;;;14.07;100.00;99086.22;6284234;20;3585699;-61
2023/05/16 02:20:53;;;;;;;;;40.00;33.00;;;;;14.11;100.00;99090.34;6279282;20;2841477;-61
2023/05/16 02:23:21;;;;;;;;;41.50;35.50;;;;;14.23;100.00;99089.31;6281473;20;2846088;-61
2023/05/16 02:25:49;;;;;;;;;41.00;33.50;;;;;14.17;100.00;99089.00;6276306;20;2846171;-61
2023/05/16 02:28:17;;;;;;;;;41.67;35.67;;;;;14.18;100.00;99083.44;6279986;20;3595079;-60
2023/05/16 02:30:55;;;;;;;;;37.00;32.33;;;;;14.15;100.00;99075.63;6282430;20;3578583;-60
2023/05/16 02:33:27;;;;;;;;;40.67;33.33;;;;;14.22;100.00;99074.09;6279139;20;2851463;-61
2023/05/16 02:35:55;;;;;;;;;40.50;35.00;;;;;14.31;100.00;99072.44;6314326;20;3476414;-61
2023/05/16 02:38:24;;;;;;;;;41.33;33.67;;;;;14.18;100.00;99058.31;6310435;20;2843125;-61
2023/05/16 02:40:52;;;;;;;;;39.00;32.00;;;;;14.17;100.00;99051.19;6314339;20;3599229;-61
2023/05/16 02:43:20;;;;;;;;;36.33;32.67;;;;;14.18;100.00;99053.75;6284137;20;3588904;-62
2023/05/16 02:45:49;;;;;;;;;38.00;33.00;;;;;14.13;100.00;99061.38;6277206;20;2840924;-61
2023/05/16 02:48:18;;;;;;;;;41.00;32.00;;;;;14.09;100.00;99054.56;6274519;20;2864902;-62
2023/05/16 02:50:46;;;;;;;;;36.33;29.33;;;;;14.02;100.00;99064.16;6315442;20;3611770;-62
2023/05/16 02:53:14;;;;;;;;;36.67;32.00;;;;;14.05;100.00;99080.09;6282295;20;3587792;-61
2023/05/16 02:55:44;;;;;;;;;42.33;34.00;;;;;13.83;100.00;99081.94;6276595;20;2851369;-62
2023/05/16 02:58:12;;;;;;;;;39.67;32.00;;;;;13.91;100.00;99072.34;6312623;20;3585674;-62
2023/05/16 03:00:41;;;;;;;;;37.67;32.67;;;;;13.90;100.00;99065.22;6279760;20;3579425;-61
2023/05/16 03:03:09;;;;;;;;;44.67;32.00;;;;;14.05;100.00;99080.09;6283565;20;3597122;-60
2023/05/16 03:05:38;;;;;;;;;42.67;34.67;;;;;14.00;100.00;99088.56;6279508;20;2859760;-60
2023/05/16 03:08:06;;;;;;;;;40.67;32.33;;;;;13.96;100.00;99086.28;6314898;20;3595104;-60
2023/05/16 03:10:35;;;;;;;;;44.00;32.00;;;;;13.95;100.00;99087.25;6279102;20;3604461;-61
2023/05/16 03:13:03;;;;;;;;;46.67;36.00;;;;;14.02;100.00;99080.38;6316893;20;3608609;-60
2023/05/16 03:15:32;;;;;;;;;41.00;33.00;;;;;14.08;100.00;99085.22;6287380;20;3590954;-60
2023/05/16 03:18:00;;;;;;;;;45.33;34.00;;;;;14.11;100.00;99078.72;6284559;20;3613864;-61
2023/05/16 03:20:28;;;;;;;;;34.00;29.67;;;;;14.14;100.00;99068.53;6287514;20;3602359;-60
2023/05/16 03:22:56;;;;;;;;;42.33;31.33;;;;;14.11;100.00;99062.50;6286611;20;3613813;-60
2023/05/16 03:25:25;;;;;;;;;40.33;31.67;;;;;14.14;100.00;99065.81;6288627;20;3588867;-60
2023/05/16 03:27:55;;;;;;;;;39.75;30.50;;;;;14.12;100.00;99065.09;6286147;20;3627325;-60
2023/05/16 03:30:24;;;;;;;;;40.67;31.33;;;;;14.14;100.00;99068.53;6315509;20;3601292;-60
2023/05/16 03:32:54;;;;;;;;;33.67;28.67;;;;;14.16;100.00;99055.72;6279867;20;2852894;-60
2023/05/16 03:35:23;;;;;;;;;29.67;26.33;;;;;14.13;100.00;99077.59;6316870;20;3606514;-60
2023/05/16 03:37:51;;;;;;;;;10.50;10.50;;;;;14.13;100.00;99071.34;6280057;20;2806690;-60
2023/05/16 03:40:20;;;;;;;;;37.75;28.50;;;;;14.11;100.00;99073.31;6288726;20;3626392;-60
2023/05/16 03:42:48;;;;;;;;;30.33;26.33;;;;;14.06;100.00;99087.22;6315848;20;3591933;-61
2023/05/16 03:45:17;;;;;;;;;37.67;29.00;;;;;14.04;100.00;99076.53;6282011;20;3631491;-60
2023/05/16 03:47:47;;;;;;;;;29.33;27.67;;;;;14.09;100.00;99067.22;6315812;20;3598359;-61
2023/05/16 03:50:17;;;;;;;;;42.00;30.00;;;;;14.08;100.00;99074.44;6283783;20;3604605;-60
2023/05/16 03:52:45;;;;;;;;;34.00;28.00;;;;;14.07;100.00;99078.13;6319283;20;3611910;-60
2023/05/16 03:55:14;;;;;;;;;33.67;30.33;;;;;14.15;100.00;99082.88;6283705;20;3614856;-61
2023/05/16 03:57:42;;;;;;;;;34.33;30.00;;;;;14.22;100.00;99081.38;6287275;20;3608706;-60
2023/05/16 04:00:11;;;;;;;;;40.00;33.00;;;;;14.16;100.00;99071.91;6282893;20;3589950;-60
2023/05/16 04:02:41;;;;;;;;;28.67;26.67;;;;;14.25;100.00;99070.28;6278926;20;3592023;-60
2023/05/16 04:05:11;;;;;;;;;38.67;30.00;;;;;14.33;100.00;99064.22;6314575;20;3608693;-60
2023/05/16 04:07:40;;;;;;;;;35.00;29.00;;;;;14.32;100.00;99078.69;6286906;20;3620149;-60
2023/05/16 04:10:10;;;;;;;;;30.33;27.00;;;;;14.34;100.00;99088.38;6281371;20;2856643;-61
2023/05/16 04:12:38;;;;;;;;;27.67;25.33;;;;;14.34;100.00;99090.22;6318991;20;3580041;-60
2023/05/16 04:15:07;;;;;;;;;36.67;29.33;;;;;14.24;100.00;99099.13;6284229;20;3615930;-61
2023/05/16 04:17:35;;;;;;;;;35.33;30.67;;;;;14.31;100.00;99109.41;6285228;20;3579615;-58
2023/05/16 04:20:05;;;;;;;;;33.00;28.33;;;;;14.38;100.00;99113.28;6282096;20;2848343;-56
2023/05/16 04:22:34;;;;;;;;;34.50;28.25;;;;;14.24;100.00;99109.94;6315148;20;3622203;-60
2023/05/16 04:25:03;;;;;;;;;27.67;25.33;;;;;14.22;100.00;99105.66;6317872;20;3571107;-54
2023/05/16 04:27:31;;;;;;;;;31.00;26.33;;;;;14.20;100.00;99103.09;6284804;20;3588993;-57
2023/05/16 04:30:00;;;;;;;;;30.33;28.00;;;;;14.28;100.00;99107.81;6284761;20;3598202;-60
2023/05/16 04:32:28;;;;;;;;;34.67;30.00;;;;;14.40;100.00;99114.00;6286133;20;3615924;-59
2023/05/16 04:34:57;;;;;;;;;27.33;23.33;;;;;14.25;100.00;99117.03;6285577;20;3562803;-59
2023/05/16 04:37:25;;;;;;;;;27.00;25.00;;;;;14.35;100.00;99114.41;6307793;20;2842058;-59
2023/05/16 04:39:53;;;;;;;;;23.00;22.00;;;;;14.43;100.00;99121.84;6283886;20;3568074;-59
2023/05/16 04:42:22;;;;;;;;;25.00;24.33;;;;;14.40;100.00;99119.41;6314845;20;3573755;-60
2023/05/16 04:44:51;;;;;;;;;21.00;20.33;;;;;14.38;100.00;99102.50;6282033;20;3581750;-60
2023/05/16 04:47:19;;;;;;;;;27.00;24.00;;;;;14.40;100.00;99111.28;6275446;20;2848236;-59
2023/05/16 04:49:48;;;;;;;;;24.50;22.00;;;;;14.48;100.00;99111.47;6280521;20;2838849;-60
2023/05/16 04:52:16;;;;;;;;;21.50;19.50;;;;;14.43;100.00;99111.91;6278688;20;2843172;-59
2023/05/16 04:54:44;;;;;;;;;20.50;18.50;;;;;14.34;100.00;99103.72;6282415;20;2833623;-60
2023/05/16 04:57:13;;;;;;;;;18.50;18.50;;;;;14.37;100.00;99104.31;6278339;20;2828487;-59
2023/05/16 04:59:41;;;;;;;;;20.50;19.00;;;;;14.36;100.00;99112.56;6285863;20;2826340;-59
2023/05/16 05:02:10;;;;;;;;;22.50;19.50;;;;;14.38;100.00;99108.75;6281272;20;2841949;-59
2023/05/16 05:04:38;;;;;;;;;20.00;18.00;;;;;14.40;100.00;99108.59;6285223;20;2834648;-60
2023/05/16 05:07:07;;;;;;;;;15.50;15.50;;;;;14.41;100.00;99108.47;6280913;20;2820087;-58
2023/05/16 05:09:35;;;;;;;;;19.33;18.00;;;;;14.39;100.00;99105.03;6286089;20;2833610;-59
2023/05/16 05:12:04;;;;;;;;;22.00;19.00;;;;;14.49;100.00;99099.72;6313890;20;2833703;-59
2023/05/16 05:14:32;;;;;;;;;22.50;22.50;;;;;14.47;100.00;99088.16;6281687;20;2832697;-57
2023/05/16 05:17:00;;;;;;;;;20.50;20.50;;;;;14.39;100.00;99093.38;6280441;20;2841945;-59
2023/05/16 05:19:29;;;;;;;;;22.00;19.00;;;;;14.43;100.00;99103.81;6281278;20;2835704;-59
2023/05/16 05:21:58;;;;;;;;;18.33;16.67;;;;;14.54;100.00;99102.03;6283744;20;3558603;-59
2023/05/16 05:24:26;;;;;;;;;18.00;18.00;;;;;14.68;100.00;99118.75;6281252;20;2825417;-60
2023/05/16 05:26:55;;;;;;;;;19.00;19.00;;;;;14.61;100.00;99125.69;6278994;20;2828530;-60
2023/05/16 05:29:23;;;;;;;;;20.50;20.50;;;;;14.65;100.00;99121.72;6282122;20;2839871;-59
2023/05/16 05:31:50;;;;;;;;;23.00;20.00;;;;;14.63;100.00;99123.69;6277714;20;2483617;-59
2023/05/16 05:34:19;;;;;;;;;21.00;21.00;;;;;14.63;100.00;99117.44;6282324;20;3583735;-59
2023/05/16 05:36:47;;;;;;;;;18.00;15.50;;;;;14.73;100.00;99122.91;6278634;20;2823248;-60
2023/05/16 05:39:16;;;;;;;;;23.33;20.33;;;;;14.78;100.00;99107.13;6279675;20;2846146;-59
2023/05/16 05:41:44;;;;;;;;;19.50;19.50;;;;;14.84;100.00;99109.28;6315103;20;2842439;-59
2023/05/16 05:44:13;;;;;;;;;21.50;20.50;;;;;14.88;100.00;99106.19;6284684;20;2842098;-59
2023/05/16 05:46:41;;;;;;;;;18.00;18.00;;;;;14.80;100.00;99110.56;6283065;20;2826325;-60
2023/05/16 05:49:09;;;;;;;;;22.00;18.00;;;;;14.69;100.00;99123.19;6279250;20;2498641;-59
2023/05/16 05:51:38;;;;;;;;;20.00;20.00;;;;;14.74;100.00;99130.84;6282629;20;2842095;-59
2023/05/16 05:54:06;;;;;;;;;19.67;18.33;;;;;14.65;100.00;99121.72;6310250;20;3548241;-60
2023/05/16 05:56:34;;;;;;;;;19.00;19.00;;;;;14.61;100.00;99114.88;6277259;20;2500410;-59
2023/05/16 05:59:02;;;;;;;;;22.50;21.00;;;;;14.53;100.00;99111.97;6313120;20;2835807;-59
2023/05/16 06:01:31;;;;;;;;;22.00;20.00;;;;;14.47;100.00;99113.34;6283831;20;2832606;-60
2023/05/16 06:03:58;;;;;;;;;25.50;20.50;;;;;14.49;100.00;99119.47;6281541;20;2479674;-61
2023/05/16 06:06:30;;;;;;;;;20.00;17.00;;;;;14.50;100.00;99112.22;6279407;20;3571228;-59
2023/05/16 06:08:58;;;;;;;;;20.50;19.50;;;;;14.46;100.00;99118.88;6280580;20;2831377;-60
2023/05/16 06:11:26;;;;;;;;;18.00;17.00;;;;;14.43;100.00;99116.47;6280570;20;2827399;-59
2023/05/16 06:13:54;;;;;;;;;19.50;18.50;;;;;14.54;100.00;99102.03;6284937;20;2844127;-59
2023/05/16 06:16:26;;;;;;;;;20.00;18.00;;;;;14.54;100.00;99091.25;6279146;20;2839940;-60
2023/05/16 06:18:54;;;;;;;;;19.00;19.00;;;;;14.45;100.00;99092.84;6282417;20;3570046;-59
2023/05/16 06:21:22;;;;;;;;;19.00;16.00;;;;;14.43;100.00;99100.25;6278725;20;2491951;-59
2023/05/16 06:23:49;;;;;;;;;21.00;18.00;;;;;14.52;100.00;99104.84;6282235;20;2500721;-61
2023/05/16 06:26:16;;;;;;;;;17.00;17.00;;;;;14.43;100.00;99105.66;6280902;20;2491968;-59
2023/05/16 06:28:45;;;;;;;;;17.33;16.00;;;;;14.44;100.00;99099.25;6281103;20;2829512;-61
2023/05/16 06:31:12;;;;;;;;;16.00;16.00;;;;;14.43;100.00;99100.25;6304359;20;2485827;-58
2023/05/16 06:33:40;;;;;;;;;18.00;18.00;;;;;14.41;100.00;99086.88;6280061;20;2837777;-54
2023/05/16 06:36:08;;;;;;;;;11.00;11.00;;;;;14.21;100.00;99085.88;6284666;20;2798279;-58
2023/05/16 06:38:36;;;;;;;;;20.00;17.50;;;;;14.40;100.00;99097.78;6281995;20;2833754;-59
2023/05/16 06:41:03;;;;;;;;;19.00;17.00;;;;;14.48;100.00;99098.84;6282677;20;2496138;-57
2023/05/16 06:43:31;;;;;;;;;17.33;17.33;;;;;14.44;100.00;99110.91;6278518;20;2500406;-53
2023/05/16 06:45:59;;;;;;;;;18.00;17.00;;;;;14.51;100.00;99119.34;6308528;20;2829578;-57
2023/05/16 06:48:27;;;;;;;;;15.50;14.50;;;;;14.56;100.00;99122.53;6281744;20;2494057;-58
2023/05/16 06:50:56;;;;;;;;;18.50;18.50;;;;;14.56;100.00;99127.94;6280912;20;2828391;-56
2023/05/16 06:53:23;;;;;;;;;18.00;13.50;;;;;14.49;100.00;99134.81;6285608;20;2799280;-59
2023/05/16 06:55:51;;;;;;;;;18.00;17.00;;;;;14.57;100.00;99143.16;6285132;20;2496200;-58
2023/05/16 06:58:19;;;;;;;;;21.00;20.00;;;;;14.56;100.00;99141.44;6278887;20;2844099;-59
2023/05/16 07:00:49;;;;;;;;;23.50;20.00;;;;;14.53;100.00;99130.88;6281128;20;2842052;-54
2023/05/16 07:03:17;;;;;;;;;21.00;21.00;;;;;14.52;100.00;99122.91;6279430;20;2844043;-59
2023/05/16 07:05:46;;;;;;;;;20.00;19.00;;;;;14.47;100.00;99123.28;6280565;20;2839867;-55
2023/05/16 07:08:14;;;;;;;;;19.50;16.50;;;;;14.41;100.00;99107.63;6279919;20;2835694;-59
2023/05/16 07:10:41;;;;;;;;;17.50;16.50;;;;;14.37;100.00;99111.56;6278196;20;2494044;-56
2023/05/16 07:13:09;;;;;;;;;21.00;15.50;;;;;14.33;100.00;99107.44;6282011;20;2487769;-56
2023/05/16 07:15:39;;;;;;;;;14.00;10.60;;;;;14.31;100.00;99093.19;6304081;20;2785724;-57
2023/05/16 07:18:08;;;;;;;;;18.00;18.00;;;;;14.38;100.00;99086.28;6280526;20;3556530;-55
2023/05/16 07:20:36;;;;;;;;;16.67;14.67;;;;;14.40;100.00;99089.69;6279619;20;3536720;-55
2023/05/16 07:23:03;;;;;;;;;13.50;13.50;;;;;14.44;100.00;99102.78;6282683;20;2791977;-57
2023/05/16 07:25:32;;;;;;;;;19.00;17.67;;;;;14.55;100.00;99095.63;6281617;20;2827376;-57
2023/05/16 07:27:59;;;;;;;;;12.00;11.50;;;;;14.53;100.00;99100.31;6314123;20;2792095;-57
2023/05/16 07:30:28;;;;;;;;;14.67;14.67;;;;;14.60;100.00;99096.94;6279181;20;3513981;-52
2023/05/16 07:32:55;;;;;;;;;15.00;10.50;;;;;14.60;100.00;99106.91;6308433;20;2791033;-59
2023/05/16 07:35:23;;;;;;;;;14.67;13.33;;;;;14.57;100.00;99101.78;6278400;20;2794120;-54
2023/05/16 07:37:53;;;;;;;;;6.80;6.80;;;;;14.65;100.00;99110.91;6338001;20;2748188;-59
2023/05/16 07:40:24;;;;;;;;;9.67;9.67;;;;;14.67;100.00;99111.63;6308668;20;2772157;-58
2023/05/16 07:42:52;;;;;;;;;12.00;12.00;;;;;14.70;100.00;99110.50;6319328;20;2794106;-55
2023/05/16 07:45:20;;;;;;;;;9.00;9.00;;;;;14.49;100.00;99113.22;6280955;20;2750338;-58
2023/05/16 07:47:47;;;;;;;;;11.50;10.00;;;;;14.70;100.00;99102.41;6315601;20;2791982;-56
2023/05/16 07:50:15;;;;;;;;;11.67;11.67;;;;;14.80;100.00;99092.50;6277495;20;2792349;-57
2023/05/16 07:52:44;;;;;;;;;10.67;9.67;;;;;14.64;100.00;99097.50;6308904;20;3503441;-57
2023/05/16 07:55:12;;;;;;;;;18.33;15.67;;;;;14.88;100.00;99097.22;6309399;20;2823205;-52
2023/05/16 07:57:40;;;;;;;;;16.33;16.33;;;;;15.00;100.00;99108.78;6314986;20;2818110;-55
2023/05/16 08:00:08;;;;;;;;;16.50;16.50;;;;;14.94;100.00;99099.38;6312779;20;2490009;-54
2023/05/16 08:02:36;;;;;;;;;15.00;12.00;;;;;14.77;100.00;99100.00;6286516;20;2794035;-56
2023/05/16 08:05:05;;;;;;;;;19.33;18.67;;;;;14.74;100.00;99100.28;6285072;20;3579431;-54
2023/05/16 08:07:34;;;;;;;;;19.67;18.33;;;;;14.68;100.00;99105.22;6287707;20;2827382;-55
2023/05/16 08:10:02;;;;;;;;;17.00;16.50;;;;;14.83;100.00;99102.19;6316430;20;2825266;-57
2023/05/16 08:12:30;;;;;;;;;14.33;13.33;;;;;14.65;100.00;99104.66;6276457;20;3516983;-50
2023/05/16 08:14:58;;;;;;;;;13.33;12.33;;;;;14.52;100.00;99112.09;6315719;20;3520787;-56
2023/05/16 08:17:26;;;;;;;;;15.50;14.50;;;;;14.60;100.00;99109.59;6321242;20;2806784;-53
2023/05/16 08:19:54;;;;;;;;;16.33;15.33;;;;;14.67;100.00;99108.94;6287739;20;3551304;-54
2023/05/16 08:22:25;;;;;;;;;18.00;14.50;;;;;14.58;100.00;99098.06;6318326;20;2814987;-55
2023/05/16 08:24:59;;;;;;;;;9.60;9.60;;;;;14.56;100.00;99105.44;6310987;20;2783638;-53
2023/05/16 08:27:28;;;;;;;;;15.00;15.00;;;;;14.68;100.00;99086.31;6286566;20;3538851;-55
2023/05/16 08:29:55;;;;;;;;;12.00;11.50;;;;;14.66;100.00;99076.63;6288760;20;2793017;-49
2023/05/16 08:32:23;;;;;;;;;13.67;10.67;;;;;14.63;100.00;99064.25;6284792;20;2786927;-51
2023/05/16 08:34:51;;;;;;;;;15.00;14.00;;;;;14.75;100.00;99070.44;6317874;20;2796411;-54
2023/05/16 08:37:19;;;;;;;;;10.67;9.67;;;;;14.70;100.00;99072.69;6285048;20;2783719;-54
2023/05/16 08:39:46;;;;;;;;;14.50;13.50;;;;;14.69;100.00;99069.13;6319642;20;2806633;-54
2023/05/16 08:42:14;;;;;;;;;14.00;14.00;;;;;14.62;100.00;99050.88;6286813;20;2500387;-53
2023/05/16 08:44:42;;;;;;;;;19.33;17.00;;;;;14.71;100.00;99040.09;6285674;20;3557569;-52
2023/05/16 08:47:17;;;;;;;;;18.67;13.67;;;;;14.73;100.00;99042.69;6283680;20;3551332;-49
2023/05/16 08:49:47;;;;;;;;;19.00;17.00;;;;;14.62;100.00;99043.63;6280003;20;3560743;-52
2023/05/16 08:52:20;;;;;;;;;15.00;15.00;;;;;14.64;100.00;99057.88;6285662;20;2788881;-49
2023/05/16 08:54:50;;;;;;;;;13.33;12.33;;;;;14.57;100.00;99059.41;6285913;20;3520165;-52
2023/05/16 08:57:37;;;;;;;;;16.67;14.00;;;;;14.62;100.00;99067.94;6282851;20;3537803;-50
2023/05/16 09:00:11;;;;;;;;;14.00;14.00;;;;;14.61;100.00;99063.56;6316452;20;2676353;-51
2023/05/16 09:02:43;;;;;;;;;17.50;14.50;;;;;14.57;100.00;99070.19;6287537;20;2801346;-53
2023/05/16 09:05:14;;;;;;;;;14.00;14.00;;;;;14.63;100.00;99069.66;6284505;20;2500384;-53
2023/05/16 09:07:44;;;;;;;;;13.40;10.60;;;;;14.57;100.00;99066.66;6310154;20;2788807;-50
2023/05/16 09:10:12;;;;;;;;;17.00;16.00;;;;;14.68;100.00;99078.22;6279334;20;2491972;-50
2023/05/16 09:12:41;;;;;;;;;11.00;9.00;;;;;14.73;100.00;99068.84;6290192;20;2771240;-52
2023/05/16 09:15:10;;;;;;;;;16.00;15.50;;;;;14.78;100.00;99063.91;6283598;20;2819024;-53
2023/05/16 09:17:44;;;;;;;;;15.33;15.33;;;;;14.80;100.00;99064.63;6283585;20;3545052;-54
2023/05/16 09:20:17;;;;;;;;;18.00;16.00;;;;;14.82;100.00;99063.47;6281725;20;2814891;-49
2023/05/16 09:23:10;;;;;;;;;17.00;16.00;;;;;14.70;100.00;99060.03;6284156;20;2827368;-52
2023/05/16 09:25:39;;;;;;;;;18.00;18.00;;;;;14.83;100.00;99056.22;6279116;20;2833732;-55
2023/05/16 09:28:24;;;;;;;;;7.00;6.00;;;;;14.78;100.00;99050.38;6290312;20;2741953;-53
2023/05/16 09:30:54;;;;;;;;;19.33;19.00;;;;;14.78;100.00;99044.97;6283227;20;3572273;-57
2023/05/16 09:33:22;;;;;;;;;22.00;18.00;;;;;14.82;100.00;99055.34;6278097;20;2832625;-47
2023/05/16 09:35:59;;;;;;;;;19.00;18.00;;;;;14.89;100.00;99047.56;6283110;20;2835763;-52
2023/05/16 09:38:28;;;;;;;;;25.00;21.00;;;;;15.08;100.00;99055.72;6280336;20;2850293;-56
2023/05/16 09:40:57;;;;;;;;;25.00;21.33;;;;;14.86;100.00;99056.81;6282684;20;2850285;-55
2023/05/16 09:43:26;;;;;;;;;23.00;21.00;;;;;14.81;100.00;99055.50;6317865;20;3581639;-54
2023/05/16 09:45:58;;;;;;;;;24.00;21.67;;;;;14.88;100.00;99064.78;6283407;20;3577433;-57
2023/05/16 09:48:27;;;;;;;;;23.00;21.00;;;;;14.94;100.00;99050.72;6281548;20;2839902;-58
2023/05/16 09:50:58;;;;;;;;;28.33;25.67;;;;;14.86;100.00;99053.25;6284938;20;3582658;-56
2023/05/16 09:53:32;;;;;;;;;22.67;22.00;;;;;14.87;100.00;99060.34;6282277;20;3574214;-49
2023/05/16 09:56:06;;;;;;;;;28.33;28.33;;;;;14.84;100.00;99066.88;6282420;20;3590898;-52
2023/05/16 09:58:40;;;;;;;;;20.00;18.50;;;;;14.76;100.00;99053.22;6282020;20;2828536;-51
2023/05/16 10:01:10;;;;;;;;;33.00;28.33;;;;;14.91;100.00;99054.53;6284226;20;2857346;-54
2023/05/16 10:03:41;;;;;;;;;24.67;22.33;;;;;14.98;100.00;99059.38;6315821;20;3577427;-49
2023/05/16 10:06:11;;;;;;;;;24.33;20.67;;;;;15.01;100.00;99059.09;6280232;20;3583704;-50
2023/05/16 10:08:42;;;;;;;;;26.67;24.00;;;;;14.99;100.00;99075.50;6279732;20;2848420;-50
2023/05/16 10:11:11;;;;;;;;;24.67;23.33;;;;;15.06;100.00;99062.25;6312951;20;3572202;-52
2023/05/16 10:13:43;;;;;;;;;25.00;23.00;;;;;14.99;100.00;99047.59;6277169;20;2832606;-48
2023/05/16 10:16:13;;;;;;;;;22.00;22.00;;;;;14.93;100.00;99041.75;6278853;20;2831639;-47
2023/05/16 10:18:45;;;;;;;;;23.00;23.00;;;;;14.91;100.00;99048.28;6281707;20;2839912;-52
2023/05/16 10:21:17;;;;;;;;;18.00;15.00;;;;;14.90;100.00;99047.44;6301852;20;2817000;-52
2023/05/16 10:23:49;;;;;;;;;12.20;10.20;;;;;14.93;100.00;99057.13;6303075;20;2788841;-51
2023/05/16 10:26:20;;;;;;;;;26.00;21.33;;;;;14.98;100.00;99053.97;6281039;20;2840947;-51
2023/05/16 10:28:50;;;;;;;;;23.00;22.00;;;;;15.02;100.00;99053.56;6310736;20;2841029;-54
2023/05/16 10:31:18;;;;;;;;;22.50;22.50;;;;;15.10;100.00;99032.09;6281220;20;2841949;-54
2023/05/16 10:33:47;;;;;;;;;27.00;23.00;;;;;15.08;100.00;99023.28;6279807;20;2840902;-59
2023/05/16 10:36:17;;;;;;;;;24.50;24.50;;;;;15.09;100.00;99021.44;6275703;20;2835725;-61
2023/05/16 10:38:46;;;;;;;;;24.00;22.67;;;;;15.19;100.00;99022.28;6282851;20;3571267;-59
2023/05/16 10:41:16;;;;;;;;;25.00;23.00;;;;;15.27;100.00;99010.78;6281175;20;2709761;-59
2023/05/16 10:43:56;;;;;;;;;24.00;22.00;;;;;15.31;100.00;99014.91;6312596;20;2832661;-60
2023/05/16 10:46:28;;;;;;;;;19.00;19.00;;;;;15.30;100.00;99019.47;6275953;20;2838897;-59
2023/05/16 10:48:57;;;;;;;;;27.00;21.00;;;;;15.28;100.00;99026.03;6311609;20;2841941;-59
2023/05/16 10:51:34;;;;;;;;;22.00;19.00;;;;;15.28;100.00;99035.00;6270152;20;2839989;-59
2023/05/16 10:54:09;;;;;;;;;23.50;21.00;;;;;15.26;100.00;99030.72;6282209;20;2840961;-59
2023/05/16 10:56:37;;;;;;;;;20.67;20.67;;;;;15.29;100.00;99031.28;6284564;20;3581555;-59
2023/05/16 10:59:24;;;;;;;;;24.33;21.00;;;;;15.20;100.00;99020.47;6280825;20;3577439;-59
2023/05/16 11:01:54;;;;;;;;;18.00;18.00;;;;;15.20;100.00;99020.47;6279923;20;2837909;-59
2023/05/16 11:04:27;;;;;;;;;27.00;24.00;;;;;15.30;100.00;99034.84;6281363;20;3591949;-59
2023/05/16 11:06:58;;;;;;;;;30.33;23.00;;;;;15.36;100.00;99007.25;6277059;20;2860738;-59
2023/05/16 11:09:27;;;;;;;;;25.00;24.00;;;;;15.54;100.00;98994.72;6312281;20;3585771;-60